Terminal Aerodrome Forecast
Issued by NWS

Current Version | Previous Version | Text Only | Print | Product List | Glossary On
Versions: 1 2 3 4 5 6 7 8 9 10 11 12 13 14 15 16 17 18 19 20 21 22 23 24 25 26 27 28 29 30 31
000
FTUS45 KCYS 040145 AAB
TAFRWL
TAF AMD
KRWL 040145Z 0402/0424 07007KT P6SM VCSH SCT050 BKN120
      TEMPO 0402/0404 24015G25KT -SHRA BKN050
     FM040400 21012KT P6SM BKN080
     FM040900 24023G34KT P6SM BKN100
     FM041600 28025G35KT P6SM SCT200=

USA.gov is the U.S. government's official web portal to all federal, state and local government web resources and services.